createdAt,value
2018-11-26T00:04:52.468Z,7.60
2018-11-26T00:14:55.816Z,7.60
2018-11-26T00:24:59.194Z,7.50
2018-11-26T00:35:03.429Z,7.50
2018-11-26T00:45:08.518Z,7.40
2018-11-26T00:55:12.008Z,7.40
2018-11-26T01:05:46.862Z,7.10
2018-11-26T01:15:50.312Z,7.10
2018-11-26T01:25:56.860Z,7.00
2018-11-26T01:36:00.361Z,7.10
2018-11-26T01:46:03.709Z,7.10
2018-11-26T01:56:07.051Z,7.10
2018-11-26T02:06:10.376Z,7.00
2018-11-26T02:16:13.734Z,7.00
2018-11-26T02:26:17.069Z,7.00
2018-11-26T02:36:20.421Z,6.90
2018-11-26T02:46:23.770Z,6.90
2018-11-26T02:56:27.104Z,6.60
2018-11-26T03:06:30.462Z,6.40
2018-11-26T03:16:33.804Z,6.30
2018-11-26T03:26:37.147Z,6.30
2018-11-26T03:36:40.529Z,6.10
2018-11-26T03:46:43.831Z,6.00
2018-11-26T03:56:47.172Z,5.80
2018-11-26T04:06:50.536Z,5.80
2018-11-26T04:16:53.867Z,5.80
2018-11-26T04:26:58.516Z,5.70
2018-11-26T04:37:00.567Z,5.70
2018-11-26T04:47:03.909Z,5.70
2018-11-26T04:57:07.237Z,5.70
2018-11-26T05:07:10.594Z,5.60
2018-11-26T05:17:13.942Z,5.70
2018-11-26T05:27:17.262Z,5.80
2018-11-26T05:37:20.626Z,5.70
2018-11-26T05:47:23.978Z,5.70
2018-11-26T05:57:27.329Z,5.80
2018-11-26T06:07:30.672Z,5.90
2018-11-26T06:17:33.993Z,6.00
2018-11-26T06:27:37.756Z,6.00
2018-11-26T06:37:41.390Z,6.10
2018-11-26T06:47:44.779Z,6.30
2018-11-26T06:57:48.041Z,6.40
2018-11-26T07:07:51.348Z,6.60
2018-11-26T07:17:54.658Z,6.70
2018-11-26T07:27:58.009Z,6.90
2018-11-26T07:38:01.387Z,7.10
2018-11-26T07:48:06.548Z,7.10
2018-11-26T07:58:09.905Z,7.20
2018-11-26T08:08:13.283Z,7.30
2018-11-26T08:18:16.649Z,7.50
2018-11-26T08:28:20.147Z,7.60
2018-11-26T08:38:23.610Z,7.80
2018-11-26T08:48:27.625Z,7.80
2018-11-26T08:58:31.210Z,7.90
2018-11-26T09:08:36.542Z,7.90
2018-11-26T09:18:40.008Z,8.00
2018-11-26T09:28:43.381Z,8.20
2018-11-26T09:38:46.708Z,8.30
2018-11-26T09:48:50.073Z,8.40
2018-11-26T09:58:53.329Z,8.50
2018-11-26T10:08:56.624Z,8.50
2018-11-26T10:18:59.855Z,8.60
2018-11-26T10:29:03.120Z,8.70
2018-11-26T10:39:09.128Z,8.80
2018-11-26T10:49:12.623Z,8.90
2018-11-26T10:59:18.695Z,9.00
2018-11-26T11:09:22.861Z,9.10
2018-11-26T11:19:26.284Z,9.00
2018-11-26T11:29:29.655Z,9.00
2018-11-26T11:39:33.019Z,9.10
2018-11-26T11:49:36.346Z,9.10
2018-11-26T11:59:39.723Z,9.10
2018-11-26T12:09:43.667Z,9.20
2018-11-26T12:19:46.999Z,9.20
2018-11-26T12:29:50.335Z,9.10
2018-11-26T12:39:53.667Z,9.00
2018-11-26T12:49:57.291Z,9.00
2018-11-26T13:00:00.679Z,9.00
2018-11-26T13:10:05.512Z,9.00
2018-11-26T13:20:18.074Z,8.90
2018-11-26T13:30:22.735Z,8.90
2018-11-26T13:40:26.092Z,8.90
2018-11-26T13:50:31.480Z,8.80
2018-11-26T14:00:34.987Z,8.90
2018-11-26T14:10:38.576Z,8.90
2018-11-26T14:20:41.855Z,8.90
2018-11-26T14:30:45.206Z,8.80
2018-11-26T14:40:50.227Z,8.80
2018-11-26T14:50:53.723Z,8.80
2018-11-26T15:00:57.085Z,8.70
2018-11-26T15:11:00.451Z,8.60
2018-11-26T15:21:03.770Z,8.60
2018-11-26T15:31:07.124Z,8.50
2018-11-26T15:41:10.451Z,8.40
2018-11-26T15:51:13.776Z,8.40
2018-11-26T16:01:18.047Z,8.40
2018-11-26T16:11:21.390Z,8.30
2018-11-26T16:21:25.659Z,8.50
2018-11-26T16:31:29.030Z,8.30
2018-11-26T16:41:32.422Z,8.30
2018-11-26T16:51:35.701Z,8.30
2018-11-26T17:01:39.052Z,8.20
2018-11-26T17:11:42.446Z,8.20
2018-11-26T17:21:46.054Z,8.20
2018-11-26T17:31:50.056Z,8.20
2018-11-26T17:41:53.346Z,8.20
2018-11-26T17:51:56.703Z,8.10
2018-11-26T18:02:00.709Z,8.00
2018-11-26T18:12:04.016Z,8.00
2018-11-26T18:22:07.340Z,7.90
2018-11-26T18:32:10.583Z,7.90
2018-11-26T18:42:14.010Z,7.80
2018-11-26T18:52:17.379Z,7.70
2018-11-26T19:02:21.583Z,7.70
2018-11-26T19:12:24.966Z,7.60
2018-11-26T19:22:28.314Z,7.60
2018-11-26T19:32:31.642Z,7.50
2018-11-26T19:42:35.010Z,7.30
2018-11-26T19:52:38.334Z,7.30
2018-11-26T20:02:42.249Z,7.30
2018-11-26T20:12:46.779Z,7.40
2018-11-26T20:22:50.356Z,7.40
2018-11-26T20:32:54.433Z,7.30
2018-11-26T20:42:57.967Z,7.30
2018-11-26T20:53:01.529Z,7.20
2018-11-26T21:03:11.068Z,7.30
2018-11-26T21:13:16.955Z,7.30
2018-11-26T21:23:19.003Z,7.30
2018-11-26T21:33:23.216Z,7.00
2018-11-26T21:43:26.498Z,6.90
2018-11-26T21:53:29.747Z,7.00
2018-11-26T22:03:33.080Z,7.00
2018-11-26T22:13:36.424Z,7.00
2018-11-26T22:23:39.921Z,7.70
2018-11-26T22:33:43.379Z,7.10
2018-11-26T22:43:46.796Z,7.00
2018-11-26T22:53:50.101Z,7.00
2018-11-26T23:03:53.432Z,6.90
2018-11-26T23:13:56.636Z,6.90
2018-11-26T23:23:59.858Z,6.90
2018-11-26T23:34:03.099Z,6.80
2018-11-26T23:44:06.328Z,6.90
2018-11-26T23:54:09.538Z,6.90
